KFST/FST METAR and TAF weather

Enter ICAO airport designator
Station Type Date Time Source
KFST METAR 2022/12/04 11:53 UTC NOAA

KFST 041153Z AUTO 24006KT CLR 04/00 A3029 RMK AO2 SLP239 T00440000 10067 20039 56016


Station Type Date Time Source
KFST Decoded METAR 2022/12/04 11:53 UTC NOAA

FORT STOCKTON PECOS CO AIRPORT , TX, United States (KFST) 30-55N 102-55W 918M
Dec 04, 2022 - 06:53 AM EST / 2022.12.04 1153 UTC
Wind: from the WSW (240 degrees) at 7 MPH (6 KT):0
Sky conditions: clear
Temperature: 39.9 F (4.4 C)
Dew Point: 32.0 F (0.0 C)
Relative Humidity: 73%
Pressure (altimeter): 30.29 in. Hg (1025 hPa)
Pressure tendency: 0.05 inches (1.6 hPa) lower than three hours ago
ob: KFST 041153Z AUTO 24006KT CLR 04/00 A3029 RMK AO2 SLP239 T00440000 10067 20039 56016
cycle: 12

Station Type Date Time Source
KFST TAF 2022/12/04 12:22 UTC NOAA

TAF KFST 041120Z 0412/0512 21006KT P6SM SCT150

Example: see airport list